Shanghai Express — DPCK — position and weather

sailwx.info

Track history (hours):
 
Tides and Currents Weather Stations Pressure Air Temp Water Temp Dewpoint Dewpoint Depression Visibility Wind Speed Wind Dir Waves Ship Positions

Shanghai Express

Last reported at 2016-Aug-29 18:33 UTC. Time now 2016-Aug-29 23:32 UTC.
Position N 38°47' E 008°50'.

Length 320.6 m; beam 42.8 m; draft 14.5 m.

Type: Ship. MMSI: 211367460.

Date/timePositionNaut miles runAvg speedWind from/ knotsBaromVisibWave heightAir tempDewpointWater temp
2016-Aug-29 18:33N 38°47' E 008°50'1616.5
2016-Aug-29 17:33N 38°58' E 009°05'15 4.8
2016-Aug-29 14:25N 39°13' E 009°04'0 0.0
2016-Aug-29 13:33N 39°13' E 009°04'6 0.6
2016-Aug-29 03:33N 39°07' E 009°06'1918.6
2016-Aug-29 02:33N 38°56' E 009°25'2120.6
2016-Aug-29 01:31N 38°44' E 009°48'2320.8
2016-Aug-29 00:24N 38°31' E 010°12'3820.8
2016-Aug-28 22:34N 38°09' E 010°52'2120.7
2016-Aug-28 21:33N 37°57' E 011°14'2120.7
2016-Aug-28 20:33N 37°46' E 011°35'2120.6
2016-Aug-28 19:32N 37°34' E 011°57'2020.6
2016-Aug-28 18:34N 37°24' E 012°20'2121.1
2016-Aug-28 17:33N 37°15' E 012°44'2121.3
2016-Aug-28 16:34N 37°07' E 013°08'2120.9
2016-Aug-28 15:34N 36°58' E 013°32'2020.2
2016-Aug-28 14:34N 36°50' E 013°55'2020.4
2016-Aug-28 13:34N 36°41' E 014°18'2120.6
2016-Aug-28 12:34N 36°34' E 014°42'2120.7
2016-Aug-28 11:33N 36°28' E 015°07'2120.5
2016-Aug-28 10:33N 36°21' E 015°31'2220.6
2016-Aug-28 09:28N 36°13' E 015°57'81020.8
2016-Aug-26 18:33N 31°51' E 031°22'1919.4
2016-Aug-26 17:33N 31°44' E 031°43'1412.8
2016-Aug-26 16:28N 31°30' E 031°46'2 0.1
2016-Aug-25 19:32N 31°28' E 031°45'16 7.5
2016-Aug-25 17:21N 31°42' E 031°54'4910.3
2016-Aug-25 12:33N 30°58' E 032°19'19 8.9
2016-Aug-25 10:27N 30°39' E 032°21'51 3.7
2016-Aug-24 20:33N 29°50' E 032°34'8 7.7
2016-Aug-24 19:33N 29°42' E 032°33'1716.9
2016-Aug-24 18:34N 29°26' E 032°39'1918.1
2016-Aug-24 17:31N 29°09' E 032°48'  
Track history (hours):
 
Tides and Currents Weather Stations Pressure Air Temp Water Temp Dewpoint Dewpoint Depression Visibility Wind Speed Wind Dir Waves Ship Positions

Shanghai Express

Last reported at 2016-Aug-29 18:33 UTC. Time now 2016-Aug-29 23:32 UTC.
Position N 38°47' E 008°50'.

Length 320.6 m; beam 42.8 m; draft 14.5 m.

Type: Ship. MMSI: 211367460.

Date/timePositionNaut miles runAvg speedWind from/ knotsBaromVisibWave heightAir tempDewpointWater temp
2016-Aug-29 18:33N 38°47' E 008°50'1616.5
2016-Aug-29 17:33N 38°58' E 009°05'15 4.8
2016-Aug-29 14:25N 39°13' E 009°04'0 0.0
2016-Aug-29 13:33N 39°13' E 009°04'6 0.6
2016-Aug-29 03:33N 39°07' E 009°06'1918.6
2016-Aug-29 02:33N 38°56' E 009°25'2120.6
2016-Aug-29 01:31N 38°44' E 009°48'2320.8
2016-Aug-29 00:24N 38°31' E 010°12'3820.8
2016-Aug-28 22:34N 38°09' E 010°52'2120.7
2016-Aug-28 21:33N 37°57' E 011°14'2120.7
2016-Aug-28 20:33N 37°46' E 011°35'2120.6
2016-Aug-28 19:32N 37°34' E 011°57'2020.6
2016-Aug-28 18:34N 37°24' E 012°20'2121.1
2016-Aug-28 17:33N 37°15' E 012°44'2121.3
2016-Aug-28 16:34N 37°07' E 013°08'2120.9
2016-Aug-28 15:34N 36°58' E 013°32'2020.2
2016-Aug-28 14:34N 36°50' E 013°55'2020.4
2016-Aug-28 13:34N 36°41' E 014°18'2120.6
2016-Aug-28 12:34N 36°34' E 014°42'2120.7
2016-Aug-28 11:33N 36°28' E 015°07'2120.5
2016-Aug-28 10:33N 36°21' E 015°31'2220.6
2016-Aug-28 09:28N 36°13' E 015°57'81020.8
2016-Aug-26 18:33N 31°51' E 031°22'1919.4
2016-Aug-26 17:33N 31°44' E 031°43'1412.8
2016-Aug-26 16:28N 31°30' E 031°46'2 0.1
2016-Aug-25 19:32N 31°28' E 031°45'16 7.5
2016-Aug-25 17:21N 31°42' E 031°54'4910.3
2016-Aug-25 12:33N 30°58' E 032°19'19 8.9
2016-Aug-25 10:27N 30°39' E 032°21'51 3.7
2016-Aug-24 20:33N 29°50' E 032°34'8 7.7
2016-Aug-24 19:33N 29°42' E 032°33'1716.9
2016-Aug-24 18:34N 29°26' E 032°39'1918.1
2016-Aug-24 17:31N 29°09' E 032°48'  

Dump ship's entire track history